Time;durP1;ratioP1;P1;durP2;ratioP2;P2;SDS_P1;SDS_P2;PMS_P1;PMS_P2;Temp;Humidity;BMP_temperature;BMP_pressure;BME280_temperature;BME280_humidity;BME280_pressure;Samples;Min_cycle;Max_cycle;Signal;HPM_P1;HPM_P2
2021/05/22 00:03:28;;;;;;;13.68;1.77;;;;;;;11.94;70.16;99781.84;10273873;28;20035;-77
2021/05/22 00:08:28;;;;;;;10.38;1.40;;;;;;;11.81;70.67;99795.06;10259712;28;20051;-77
2021/05/22 00:13:29;;;;;;;9.98;1.70;;;;;;;11.64;71.41;99780.38;10273357;28;20411;-78
2021/05/22 00:18:29;;;;;;;9.13;2.08;;;;;;;11.55;72.31;99739.47;10258164;28;20523;-77
2021/05/22 00:23:30;;;;;;;12.52;2.45;;;;;;;11.51;72.75;99782.00;10250979;28;20461;-76
2021/05/22 00:28:30;;;;;;;9.00;1.55;;;;;;;11.62;73.08;99769.19;10250367;28;20823;-76
2021/05/22 00:33:31;;;;;;;6.00;1.60;;;;;;;11.57;72.68;99764.16;10260869;28;20078;-76
2021/05/22 00:38:31;;;;;;;8.93;1.65;;;;;;;11.55;72.38;99739.47;10257328;28;20034;-76
2021/05/22 00:43:32;;;;;;;11.18;1.48;;;;;;;11.52;73.35;99751.03;10273003;28;20074;-76
2021/05/22 00:48:32;;;;;;;7.70;1.80;;;;;;;11.30;75.21;99751.09;10273544;28;20062;-76
2021/05/22 00:53:33;;;;;;;10.32;1.90;;;;;;;11.31;75.13;99736.44;10241518;28;20041;-76
2021/05/22 00:58:35;;;;;;;12.80;1.92;;;;;;;11.36;75.84;99727.91;10286170;28;20038;-76
2021/05/22 01:03:42;;;;;;;11.87;1.93;;;;;;;11.46;75.61;99747.22;10268006;28;20155;-77
2021/05/22 01:08:53;;;;;;;8.02;1.70;;;;;;;11.39;76.59;99732.53;10272591;28;20609;-76
2021/05/22 01:14:08;;;;;;;15.23;2.20;;;;;;;11.40;76.63;99739.47;10267588;28;20585;-76
2021/05/22 01:19:16;;;;;;;9.45;1.80;;;;;;;11.42;76.90;99742.56;10254000;28;20038;-76
2021/05/22 01:24:17;;;;;;;10.80;1.63;;;;;;;11.28;76.91;99748.03;10269115;28;20375;-76
2021/05/22 01:29:18;;;;;;;11.05;1.80;;;;;;;10.53;76.65;99624.56;10284736;28;20105;-77
2021/05/22 01:34:18;;;;;;;7.75;1.27;;;;;;;11.30;78.64;99756.53;10266653;28;20581;-76
2021/05/22 01:39:19;;;;;;;6.63;1.40;;;;;;;11.22;79.27;99752.31;10264029;28;20043;-76
2021/05/22 01:44:21;;;;;;;9.07;1.30;;;;;;;11.20;79.91;99735.69;10278473;28;20043;-77
2021/05/22 01:49:25;;;;;;;4.53;1.27;;;;;;;11.10;81.47;99731.06;10250945;28;20200;-76
2021/05/22 01:54:26;;;;;;;6.50;1.40;;;;;;;11.00;83.02;99738.78;10269309;28;20102;-76
2021/05/22 01:59:27;;;;;;;9.25;1.30;;;;;;;10.96;83.31;99743.44;10269811;28;20137;-76
2021/05/22 02:04:28;;;;;;;7.65;1.38;;;;;;;10.64;83.24;99694.03;10237668;28;20059;-76
2021/05/22 02:09:30;;;;;;;8.20;1.35;;;;;;;10.98;82.20;99735.72;10282483;28;20144;-76
2021/05/22 02:14:34;;;;;;;4.72;1.20;;;;;;;10.88;83.55;99731.09;10233980;28;20046;-76
2021/05/22 02:19:37;;;;;;;7.60;1.67;;;;;;;10.84;83.39;99708.72;10249416;28;20058;-76
2021/05/22 02:24:37;;;;;;;7.45;1.30;;;;;;;10.52;83.26;99668.97;10280500;28;20037;-76
2021/05/22 02:29:39;;;;;;;7.20;1.30;;;;;;;10.47;82.99;99642.34;10251063;28;20668;-76
2021/05/22 02:34:46;;;;;;;9.93;1.45;;;;;;;10.79;84.12;99717.19;10233445;28;20053;-76
2021/05/22 02:39:51;;;;;;;9.80;1.50;;;;;;;10.76;84.94;99723.38;10266087;28;20527;-77
2021/05/22 02:44:52;;;;;;;7.70;2.38;;;;;;;10.64;85.93;99710.25;10274796;28;20041;-78
2021/05/22 02:50:00;;;;;;;7.78;1.20;;;;;;;10.64;86.64;99688.63;10284295;28;20039;-78
2021/05/22 02:55:03;;;;;;;10.32;1.83;;;;;;;10.64;87.23;99704.84;10269911;28;20058;-78
2021/05/22 03:00:08;;;;;;;11.55;2.67;;;;;;;10.52;88.11;99704.09;10256675;28;20172;-78
2021/05/22 03:05:13;;;;;;;6.38;1.48;;;;;;;10.64;88.25;99704.84;10253054;28;20101;-78
2021/05/22 03:10:15;;;;;;;7.60;1.40;;;;;;;10.49;87.89;99683.25;10261498;28;20062;-78
2021/05/22 03:15:15;;;;;;;6.50;1.63;;;;;;;10.70;87.82;99687.06;10265039;28;20544;-78
2021/05/22 03:20:16;;;;;;;9.45;1.98;;;;;;;10.80;87.62;99702.53;10254190;28;20045;-78
2021/05/22 03:25:16;;;;;;;6.68;1.95;;;;;;;10.80;87.07;99691.72;10265017;28;20065;-78
2021/05/22 03:30:17;;;;;;;10.43;1.92;;;;;;;10.83;88.21;99690.94;10245009;28;20042;-77
2021/05/22 03:35:20;;;;;;;13.75;1.85;;;;;;;10.87;90.20;99691.72;10256883;28;20191;-77
2021/05/22 03:40:21;;;;;;;13.57;2.30;;;;;;;10.58;89.96;99675.53;10279844;28;20039;-78
2021/05/22 03:45:21;;;;;;;7.32;1.42;;;;;;;10.78;91.54;99711.00;10241922;28;20039;-80
2021/05/22 03:50:22;;;;;;;8.07;2.25;;;;;;;10.52;95.05;99698.69;10276777;28;20066;-78
2021/05/22 03:55:22;;;;;;;7.85;1.42;;;;;;;10.54;96.69;99712.56;10265578;28;20055;-78
2021/05/22 04:00:23;;;;;;;10.13;1.95;;;;;;;10.52;96.21;99704.09;10249235;28;20133;-79
2021/05/22 04:05:23;;;;;;;8.88;1.70;;;;;;;10.45;95.81;99709.47;10256778;28;20047;-79
2021/05/22 04:10:24;;;;;;;8.05;2.10;;;;;;;10.68;95.65;99711.03;10254829;28;20161;-79
2021/05/22 04:15:24;;;;;;;8.40;2.30;;;;;;;10.61;98.73;99711.81;10267955;28;20472;-79
2021/05/22 04:20:25;;;;;;;8.68;1.80;;;;;;;10.51;100.00;99713.34;10264522;28;20114;-80
2021/05/22 04:25:25;;;;;;;8.07;2.10;;;;;;;10.21;100.00;99694.00;10263788;28;20026;-79
2021/05/22 04:30:26;;;;;;;10.85;1.92;;;;;;;10.44;100.00;99721.47;10275678;28;20034;-78
2021/05/22 04:35:27;;;;;;;11.57;3.30;;;;;;;10.30;100.00;99724.13;10260448;28;20134;-78
2021/05/22 04:40:30;;;;;;;10.82;2.10;;;;;;;10.16;100.00;99695.94;10231142;28;20081;-78
2021/05/22 04:45:30;;;;;;;11.82;3.63;;;;;;;10.45;100.00;99741.91;10279859;28;20173;-78
2021/05/22 04:50:32;;;;;;;6.20;1.65;;;;;;;10.41;100.00;99733.03;10279833;28;20461;-78
2021/05/22 04:55:33;;;;;;;10.90;1.97;;;;;;;10.30;100.00;99741.13;10267140;28;20500;-77
2021/05/22 05:00:33;;;;;;;9.23;2.33;;;;;;;10.21;100.00;99729.13;10239661;28;20274;-77
2021/05/22 05:05:34;;;;;;;8.95;2.30;;;;;;;10.29;100.00;99744.19;10265615;28;20031;-76
2021/05/22 05:10:34;;;;;;;12.70;3.17;;;;;;;10.38;100.00;99741.91;10258276;28;20046;-77
2021/05/22 05:15:35;;;;;;;11.27;3.10;;;;;;;10.27;100.00;99757.28;10227642;28;20047;-77
2021/05/22 05:20:35;;;;;;;11.50;2.85;;;;;;;10.25;100.00;99748.78;10265524;28;20045;-77
2021/05/22 05:25:36;;;;;;;7.78;2.80;;;;;;;10.26;100.00;99761.16;10253937;28;20741;-77
2021/05/22 05:30:36;;;;;;;10.48;2.90;;;;;;;9.94;100.00;99718.63;10281322;28;20376;-79
2021/05/22 05:35:37;;;;;;;12.80;3.60;;;;;;;9.95;100.00;99720.19;10282417;28;20769;-78
2021/05/22 05:40:38;;;;;;;12.25;3.35;;;;;;;10.19;100.00;99777.34;10265240;28;20112;-79
2021/05/22 05:45:40;;;;;;;11.75;3.67;;;;;;;10.05;100.00;99765.34;10284578;28;20151;-78
2021/05/22 05:50:40;;;;;;;12.50;3.45;;;;;;;10.16;100.00;99779.66;10264952;28;20129;-78
2021/05/22 05:55:41;;;;;;;13.20;3.38;;;;;;;10.15;100.00;99783.47;10270051;28;20038;-78
2021/05/22 06:00:41;;;;;;;10.70;3.50;;;;;;;10.20;100.00;99797.78;10285045;28;20054;-77
2021/05/22 06:05:42;;;;;;;10.48;3.20;;;;;;;10.16;100.00;99790.44;10254291;28;20118;-76
2021/05/22 06:10:43;;;;;;;10.57;3.55;;;;;;;10.20;100.00;99800.47;10232389;28;20063;-77
2021/05/22 06:15:48;;;;;;;10.05;3.15;;;;;;;10.13;100.00;99796.59;10265266;28;20078;-77
2021/05/22 06:20:49;;;;;;;10.88;5.03;;;;;;;10.09;100.00;99806.63;10260201;28;20745;-76
2021/05/22 06:25:50;;;;;;;12.10;4.00;;;;;;;9.97;100.00;99798.88;10230633;28;20046;-76
2021/05/22 06:30:50;;;;;;;13.40;4.65;;;;;;;9.78;100.00;99758.69;10269435;28;20047;-77
2021/05/22 06:35:51;;;;;;;14.38;4.57;;;;;;;10.01;100.00;99805.03;10266612;28;20043;-77
2021/05/22 06:40:52;;;;;;;12.73;4.35;;;;;;;10.19;100.00;99815.16;10247971;28;20073;-77
2021/05/22 06:46:02;;;;;;;10.75;4.68;;;;;;;10.09;100.00;99814.72;10267738;28;20704;-78
2021/05/22 06:51:03;;;;;;;10.98;4.72;;;;;;;10.28;100.00;99823.66;10233672;28;20105;-77
2021/05/22 06:56:04;;;;;;;11.07;5.05;;;;;;;10.13;100.00;99815.50;10264775;28;20039;-77
2021/05/22 07:01:04;;;;;;;10.35;4.28;;;;;;;10.18;100.00;99819.00;10284755;28;20046;-77
2021/05/22 07:06:11;;;;;;;11.55;4.70;;;;;;;10.23;100.00;99842.91;10292707;28;20573;-76
2021/05/22 07:11:11;;;;;;;10.80;4.00;;;;;;;9.09;100.00;99668.59;10261258;28;21064;-77
2021/05/22 07:16:12;;;;;;;12.85;4.15;;;;;;;10.38;100.00;99854.59;10262621;28;20058;-79
2021/05/22 07:21:12;;;;;;;13.18;4.30;;;;;;;10.46;100.00;99854.22;10282446;28;20042;-77
2021/05/22 07:26:13;;;;;;;16.05;5.07;;;;;;;10.14;100.00;99798.16;10272506;28;20039;-77
2021/05/22 07:31:13;;;;;;;14.40;6.40;;;;;;;10.55;100.00;99860.03;10263036;28;20058;-77
2021/05/22 07:36:14;;;;;;;9.85;4.63;;;;;;;10.50;100.00;99857.72;10278871;28;20034;-77
2021/05/22 07:41:14;;;;;;;12.25;4.75;;;;;;;10.53;100.00;99883.19;10241201;28;20039;-77
2021/05/22 07:46:15;;;;;;;16.27;4.60;;;;;;;10.46;100.00;99873.13;10275794;28;20061;-76
2021/05/22 07:51:16;;;;;;;19.13;5.72;;;;;;;10.58;100.00;99875.50;10259381;28;20050;-77
2021/05/22 07:56:17;;;;;;;14.65;5.80;;;;;;;10.48;100.00;99862.72;10269934;28;20042;-77
2021/05/22 08:01:17;;;;;;;17.55;5.97;;;;;;;10.59;100.00;99892.47;10260359;28;20057;-77
2021/05/22 08:06:18;;;;;;;13.32;5.30;;;;;;;10.48;100.00;99860.00;10282693;28;20083;-77
2021/05/22 08:11:19;;;;;;;15.90;5.95;;;;;;;10.97;100.00;99918.03;10287941;28;20136;-77
2021/05/22 08:16:19;;;;;;;9.90;4.80;;;;;;;10.50;100.00;99857.72;10272407;28;20482;-77
2021/05/22 08:21:22;;;;;;;13.18;5.30;;;;;;;10.87;100.00;99935.03;10258193;28;20127;-77
2021/05/22 08:26:24;;;;;;;10.77;4.90;;;;;;;10.84;100.00;99935.81;10288109;28;20327;-78
2021/05/22 08:31:24;;;;;;;12.75;5.47;;;;;;;10.88;100.00;99941.19;10262095;28;20069;-78
2021/05/22 08:36:25;;;;;;;11.55;5.43;;;;;;;10.99;100.00;99931.97;10278644;28;20052;-79
2021/05/22 08:41:28;;;;;;;18.35;5.53;;;;;;;10.83;100.00;99928.84;10284516;28;20043;-78
2021/05/22 08:46:30;;;;;;;10.25;5.85;;;;;;;10.94;100.00;99932.34;10268055;28;20023;-78
2021/05/22 08:51:31;;;;;;;18.58;9.02;;;;;;;11.05;100.00;99955.91;10256704;28;20054;-78
2021/05/22 08:56:31;;;;;;;12.82;6.13;;;;;;;11.12;100.00;99972.16;10249714;28;20054;-78
2021/05/22 09:01:32;;;;;;;14.48;5.57;;;;;;;10.67;100.00;99880.50;10302811;28;20046;-80
2021/05/22 09:06:32;;;;;;;10.45;4.00;;;;;;;11.17;100.00;99990.72;10276169;28;20073;-77
2021/05/22 09:11:47;;;;;;;16.52;4.88;;;;;;;11.07;100.00;99964.41;10276610;28;20055;-78
2021/05/22 09:16:50;;;;;;;14.05;4.15;;;;;;;10.27;100.00;99868.03;10273714;28;20654;-79
2021/05/22 09:21:51;;;;;;;15.77;4.22;;;;;;;10.73;100.00;99929.59;10284149;28;21112;-79
2021/05/22 09:26:52;;;;;;;18.45;4.03;;;;;;;11.21;100.00;99991.50;10235450;28;20051;-86
2021/05/22 09:31:52;;;;;;;9.27;3.15;;;;;;;11.57;100.00;100018.59;10238380;28;20046;-83
2021/05/22 09:36:55;;;;;;;10.80;2.72;;;;;;;11.78;100.00;100018.63;10256711;28;20043;-84
2021/05/22 09:41:59;;;;;;;;;;;;;;;12.20;100.00;100044.16;10255022;28;20075;-81
2021/05/22 09:47:02;;;;;;;10.32;2.60;;;;;;;12.03;100.00;100001.59;10270034;28;19934;-82
2021/05/22 09:52:09;;;;;;;4.63;1.75;;;;;;;12.24;100.00;100077.44;10271784;28;20038;-80
2021/05/22 09:57:12;;;;;;;6.45;2.20;;;;;;;11.92;100.00;100082.09;10284929;28;20138;-81
2021/05/22 10:02:12;;;;;;;;;;;;;;;11.55;100.00;100100.19;10296012;28;20082;-82
2021/05/22 10:07:32;;;;;;;8.43;2.47;;;;;;;11.61;100.00;100116.84;10253701;28;20341;-85
2021/05/22 10:12:36;;;;;;;10.88;3.38;;;;;;;11.46;100.00;100110.63;10273007;28;20061;-79
2021/05/22 10:17:36;;;;;;;8.07;2.47;;;;;;;11.41;100.00;100125.28;10280448;28;20558;-85
2021/05/22 10:22:40;;;;;;;8.07;2.90;;;;;;;11.42;100.00;100126.84;10265983;28;20480;-83
2021/05/22 10:27:41;;;;;;;15.77;3.95;;;;;;;11.29;100.00;100101.28;10282361;28;20452;-83
2021/05/22 10:32:43;;;;;;;8.88;4.00;;;;;;;11.60;100.00;100126.13;10261671;28;20041;-88
2021/05/22 10:37:51;;;;;;;10.20;4.60;;;;;;;11.78;100.00;100170.25;10277639;28;20034;-86
2021/05/22 10:43:00;;;;;;;10.68;4.63;;;;;;;11.66;100.00;100178.72;10271486;28;20484;-85
2021/05/22 10:48:03;;;;;;;10.15;4.70;;;;;;;11.50;100.00;100170.94;10289729;28;20567;-83
2021/05/22 10:53:33;;;;;;;8.23;4.53;;;;;;;11.34;100.00;100173.97;10273322;28;20124;-82
2021/05/22 10:58:59;;;;;;;7.88;4.68;;;;;;;11.55;100.00;100216.59;10294359;28;20149;-84
2021/05/22 11:04:18;;;;;;;8.50;5.75;;;;;;;11.77;100.00;100239.09;10284932;28;20122;-83
2021/05/22 11:09:25;;;;;;;12.57;6.10;;;;;;;11.81;100.00;100245.31;10282501;28;20150;-83
2021/05/22 11:14:52;;;;;;;7.22;4.05;;;;;;;12.06;100.00;100250.03;10290749;28;20121;-76
2021/05/22 11:20:09;;;;;;;8.32;3.67;;;;;;;12.17;100.00;100272.53;10243689;28;20085;-80
2021/05/22 11:25:11;;;;;;;6.45;5.13;;;;;;;11.50;100.00;100229.69;10276899;28;20047;-78
2021/05/22 11:30:12;;;;;;;9.93;5.10;;;;;;;11.89;100.00;100275.16;10278210;28;20031;-79
2021/05/22 11:35:29;;;;;;;8.00;5.15;;;;;;;11.91;100.00;100280.97;10283574;28;20054;-79
2021/05/22 11:40:40;;;;;;;9.48;3.60;;;;;;;12.03;100.00;100321.25;10268811;28;20042;-81
2021/05/22 11:45:51;;;;;;;8.75;4.95;;;;;;;11.97;100.00;100317.34;10276688;28;20376;-80
2021/05/22 11:51:13;;;;;;;8.98;4.80;;;;;;;12.02;100.00;100341.38;10270511;28;20130;-81
2021/05/22 11:56:15;;;;;;;6.33;4.23;;;;;;;11.81;100.00;100326.56;10274261;28;20035;-84
2021/05/22 12:01:26;;;;;;;13.30;5.15;;;;;;;11.91;100.00;100324.31;10241772;28;20116;-81
2021/05/22 12:06:31;;;;;;;10.45;5.30;;;;;;;11.80;100.00;100368.31;10282423;28;20035;-77
2021/05/22 12:11:33;;;;;;;9.27;5.70;;;;;;;11.51;100.00;100355.78;10281287;28;20515;-79
2021/05/22 12:17:00;;;;;;;12.15;5.03;;;;;;;11.72;100.00;100377.56;10283391;28;20058;-81
2021/05/22 12:22:04;;;;;;;11.57;5.75;;;;;;;11.87;100.00;100374.94;10260925;28;20485;-78
2021/05/22 12:27:05;;;;;;;7.13;4.40;;;;;;;12.22;100.00;100356.16;10245282;28;20035;-81
2021/05/22 12:32:07;;;;;;;11.45;4.10;;;;;;;12.59;100.00;100412.03;10264404;28;20277;-80
2021/05/22 12:37:14;;;;;;;5.72;3.50;;;;;;;12.67;100.00;100408.16;10243215;28;20207;-77
2021/05/22 12:42:21;;;;;;;7.88;4.22;;;;;;;12.09;100.00;100368.50;10258161;28;20061;-81
2021/05/22 12:47:24;;;;;;;7.53;3.65;;;;;;;12.39;100.00;100413.50;10260918;28;20031;-78
2021/05/22 12:52:26;;;;;;;5.47;4.03;;;;;;;12.48;100.00;100438.34;10274954;28;20164;-78
2021/05/22 12:57:36;;;;;;;9.65;3.58;;;;;;;12.67;95.16;100462.41;10272853;28;20041;-78
2021/05/22 13:02:48;;;;;;;3.22;2.05;;;;;;;13.08;91.11;100459.44;10274489;28;20129;-80
2021/05/22 13:08:02;;;;;;;3.50;2.10;;;;;;;13.44;86.99;100470.34;10274190;28;20042;-80
2021/05/22 13:13:19;;;;;;;5.28;2.22;;;;;;;13.30;84.16;100478.47;10279498;28;20122;-79
2021/05/22 13:18:23;;;;;;;5.97;2.58;;;;;;;13.21;87.76;100478.81;10300305;28;20129;-80
2021/05/22 13:23:49;;;;;;;5.63;2.80;;;;;;;12.83;87.71;100458.59;10279786;28;20046;-80
2021/05/22 13:28:51;;;;;;;4.53;2.80;;;;;;;12.52;87.49;100455.41;10280707;28;20117;-80
2021/05/22 13:33:55;;;;;;;4.22;2.38;;;;;;;12.50;88.53;100495.66;10281416;28;20039;-80
2021/05/22 13:38:55;;;;;;;5.65;3.40;;;;;;;12.16;90.84;100455.25;10287924;28;20122;-79
2021/05/22 13:43:56;;;;;;;10.77;2.92;;;;;;;12.14;91.85;100457.53;10288368;28;20039;-79
2021/05/22 13:48:57;;;;;;;9.27;3.95;;;;;;;12.22;93.94;100448.28;10264422;28;20082;-80
2021/05/22 13:53:57;;;;;;;6.78;3.00;;;;;;;12.55;92.74;100498.00;10231939;28;20034;-80
2021/05/22 13:59:00;;;;;;;6.88;2.63;;;;;;;13.06;93.71;100494.31;10232977;28;20047;-80
2021/05/22 14:04:01;;;;;;;4.43;1.92;;;;;;;13.67;82.86;100488.22;10244839;28;20497;-76
2021/05/22 14:09:03;;;;;;;5.38;2.20;;;;;;;14.36;81.10;100501.28;10266847;28;20133;-81
2021/05/22 14:14:04;;;;;;;3.53;1.70;;;;;;;14.18;76.77;100478.84;10287734;28;20042;-76
2021/05/22 14:19:05;;;;;;;4.20;2.20;;;;;;;13.92;77.39;100537.06;10286437;28;20046;-76
2021/05/22 14:24:08;;;;;;;5.03;1.83;;;;;;;13.67;76.67;100537.09;10263100;28;20045;-76
2021/05/22 14:29:08;;;;;;;2.83;1.95;;;;;;;13.65;78.54;100493.25;10278368;28;20041;-76
2021/05/22 14:34:09;;;;;;;3.20;2.25;;;;;;;13.92;78.02;100537.88;10244756;28;20049;-77
2021/05/22 14:39:09;;;;;;;2.50;1.52;;;;;;;13.96;77.28;100554.94;10262714;28;20030;-76
2021/05/22 14:44:10;;;;;;;2.08;1.67;;;;;;;13.79;75.28;100539.44;10265828;28;20781;-77
2021/05/22 14:49:10;;;;;;;3.58;1.58;;;;;;;14.31;72.18;100537.03;10252736;28;20041;-76
2021/05/22 14:54:11;;;;;;;2.22;1.30;;;;;;;14.49;71.62;100536.22;10282713;28;20136;-77
2021/05/22 14:59:12;;;;;;;3.67;1.75;;;;;;;14.71;68.63;100537.72;10244886;28;20043;-76
2021/05/22 15:04:12;;;;;;;3.45;1.52;;;;;;;15.19;67.89;100545.28;10263492;28;20042;-76
2021/05/22 15:09:13;;;;;;;6.03;2.70;;;;;;;15.71;66.13;100558.22;10276272;28;20043;-76
2021/05/22 15:14:14;;;;;;;2.97;1.65;;;;;;;15.07;66.23;100513.06;10257919;28;20134;-75
2021/05/22 15:19:14;;;;;;;4.75;1.88;;;;;;;15.53;65.76;100562.97;10245149;28;20121;-77
2021/05/22 15:24:17;;;;;;;3.67;1.60;;;;;;;15.21;67.59;100525.81;10263690;28;20046;-77
2021/05/22 15:29:18;;;;;;;3.75;2.10;;;;;;;15.26;66.39;100565.47;10243397;28;20038;-76
2021/05/22 15:34:20;;;;;;;4.10;1.98;;;;;;;14.68;66.64;100527.63;10244339;28;20484;-76
2021/05/22 15:39:20;;;;;;;4.72;1.85;;;;;;;14.59;69.06;100524.56;10255664;28;20156;-77
2021/05/22 15:44:24;;;;;;;2.33;1.63;;;;;;;14.71;69.41;100578.53;10243934;28;20109;-77
2021/05/22 15:59:55;;;;;;;2.35;1.70;;;;;;;13.84;72.30;100596.09;10258966;28;20053;-79
2021/05/22 16:10:06;;;;;;;3.22;2.20;;;;;;;13.32;74.84;100587.47;10255422;28;20046;-85
2021/05/22 16:15:07;;;;;;;5.55;2.80;;;;;;;13.44;75.09;100589.81;10260253;28;20046;-84
2021/05/22 16:20:17;;;;;;;7.88;2.42;;;;;;;13.24;76.06;100569.56;10264238;28;20038;-86
2021/05/22 16:25:18;;;;;;;4.18;3.08;;;;;;;13.29;76.59;100604.53;10273294;28;20424;-85
2021/05/22 16:30:19;;;;;;;7.40;3.15;;;;;;;12.98;79.57;100563.28;10268399;28;20039;-84
2021/05/22 16:35:20;;;;;;;5.13;4.30;;;;;;;13.30;81.29;100600.63;10293532;28;20113;-82
2021/05/22 16:40:20;;;;;;;8.35;4.85;;;;;;;13.34;83.09;100614.25;10280525;28;20728;-81
2021/05/22 16:45:21;;;;;;;7.53;3.38;;;;;;;13.19;84.29;100621.50;10268073;28;20062;-82
2021/05/22 16:50:21;;;;;;;6.70;3.72;;;;;;;12.73;85.34;100594.94;10283509;28;20173;-81
2021/05/22 16:55:22;;;;;;;10.38;6.72;;;;;;;12.69;89.90;100630.94;10266200;28;20123;-82
2021/05/22 17:00:24;;;;;;;7.88;6.10;;;;;;;12.36;94.08;100625.69;10271377;28;20043;-77
2021/05/22 17:05:25;;;;;;;8.80;5.87;;;;;;;12.31;98.93;100650.44;10285577;28;20042;-87
2021/05/22 17:10:39;;;;;;;8.50;6.88;;;;;;;11.47;100.00;100544.44;10254765;28;20782;-85
2021/05/22 17:15:54;;;;;;;9.95;7.80;;;;;;;11.08;100.00;100555.63;10313053;28;20105;-84
2021/05/22 17:20:56;;;;;;;9.43;7.45;;;;;;;10.67;100.00;100498.72;10294316;28;20416;-84
2021/05/22 17:25:57;;;;;;;10.55;6.78;;;;;;;11.87;100.00;100691.81;10269720;28;20138;-83
2021/05/22 17:31:00;;;;;;;12.75;6.07;;;;;;;11.13;100.00;100563.41;10259792;28;20127;-83
2021/05/22 17:36:04;;;;;;;11.15;5.40;;;;;;;11.23;100.00;100551.91;10256886;28;20125;-82
2021/05/22 17:41:07;;;;;;;9.20;6.15;;;;;;;11.92;100.00;100618.38;10255593;28;20117;-84
2021/05/22 17:46:08;;;;;;;6.85;5.43;;;;;;;11.89;100.00;100624.53;10271884;28;20424;-84
2021/05/22 17:51:09;;;;;;;11.50;6.38;;;;;;;11.97;100.00;100666.78;10275570;28;20269;-83
2021/05/22 17:56:10;;;;;;;6.43;5.35;;;;;;;11.14;100.00;100575.78;10245738;28;20037;-85
2021/05/22 18:01:12;;;;;;;9.35;6.65;;;;;;;11.30;100.00;100605.34;10257942;28;20043;-84
2021/05/22 18:06:13;;;;;;;5.63;5.03;;;;;;;11.37;100.00;100608.91;10244650;28;20049;-83
2021/05/22 18:11:14;;;;;;;8.43;6.63;;;;;;;11.60;100.00;100667.56;10258175;28;20055;-78
2021/05/22 18:16:15;;;;;;;10.38;7.45;;;;;;;11.72;100.00;100670.00;10260701;28;20092;-82
2021/05/22 18:21:19;;;;;;;9.35;7.07;;;;;;;11.73;100.00;100676.97;10230742;28;20039;-81
2021/05/22 18:26:19;;;;;;;9.98;7.15;;;;;;;11.29;100.00;100626.22;10260359;28;20038;-80
2021/05/22 18:31:20;;;;;;;9.27;7.25;;;;;;;11.38;100.00;100672.72;10295270;28;20172;-80
2021/05/22 18:36:20;;;;;;;10.35;7.97;;;;;;;11.14;100.00;100670.47;10270842;28;20047;-83
2021/05/22 18:41:21;;;;;;;10.80;8.85;;;;;;;11.12;100.00;100675.47;10264999;28;20389;-81
2021/05/22 18:46:22;;;;;;;15.57;10.02;;;;;;;11.26;100.00;100691.88;10258743;28;20041;-81
2021/05/22 18:51:23;;;;;;;11.00;9.90;;;;;;;10.94;100.00;100638.16;10259302;28;20042;-82
2021/05/22 18:56:23;;;;;;;16.13;11.38;;;;;;;11.23;100.00;100692.63;10255435;28;20122;-81
2021/05/22 19:01:24;;;;;;;11.88;10.60;;;;;;;10.92;100.00;100656.66;10236335;28;20051;-81
2021/05/22 19:06:24;;;;;;;12.40;10.90;;;;;;;10.84;100.00;100649.59;10274235;28;20050;-80
2021/05/22 19:11:25;;;;;;;11.77;10.32;;;;;;;11.09;100.00;100687.03;10257628;28;20058;-79
2021/05/22 19:16:26;;;;;;;15.75;12.82;;;;;;;11.05;100.00;100675.38;10248758;28;20184;-81
2021/05/22 19:21:29;;;;;;;17.05;12.13;;;;;;;11.21;100.00;100711.13;10272979;28;20038;-83
2021/05/22 19:26:32;;;;;;;10.35;9.15;;;;;;;11.10;100.00;100715.63;10258689;28;20439;-85
2021/05/22 19:31:36;;;;;;;11.13;8.00;;;;;;;10.98;100.00;100720.13;10241559;28;20097;-89
2021/05/22 19:36:36;;;;;;;10.82;8.80;;;;;;;10.49;100.00;100645.22;10290494;28;20149;-82
2021/05/22 19:41:38;;;;;;;12.30;9.60;;;;;;;10.40;100.00;100652.81;10270694;28;20031;-82
2021/05/22 19:46:39;;;;;;;13.82;9.05;;;;;;;10.48;100.00;100654.47;10280770;28;20179;-81
2021/05/22 19:51:40;;;;;;;13.90;9.27;;;;;;;9.63;100.00;100519.59;10237503;28;20035;-82
2021/05/22 19:56:44;;;;;;;14.93;10.48;;;;;;;10.22;100.00;100646.31;10259507;28;20090;-83
2021/05/22 20:01:51;;;;;;;16.20;12.00;;;;;;;9.74;100.00;100531.34;10243838;28;20124;-82
2021/05/22 20:06:56;;;;;;;15.82;12.82;;;;;;;10.14;100.00;100594.88;10273315;28;20475;-82
2021/05/22 20:11:59;;;;;;;20.42;15.65;;;;;;;9.82;100.00;100569.25;10278900;28;20283;-82
2021/05/22 20:17:05;;;;;;;21.52;17.60;;;;;;;10.13;100.00;100590.59;10253051;28;20360;-84
2021/05/22 20:22:06;;;;;;;26.73;19.48;;;;;;;11.18;100.00;100771.41;10287695;28;20417;-85
2021/05/22 20:27:09;;;;;;;25.48;19.80;;;;;;;10.45;100.00;100649.78;10273384;28;20042;-85
2021/05/22 20:32:13;;;;;;;23.33;19.40;;;;;;;10.33;100.00;100647.28;10278390;28;20472;-84
2021/05/22 20:37:15;;;;;;;21.27;16.63;;;;;;;10.63;100.00;100708.75;10274082;28;20047;-83
2021/05/22 20:42:25;;;;;;;21.17;17.95;;;;;;;11.14;100.00;100800.31;10270726;28;20490;-81
2021/05/22 20:47:26;;;;;;;23.60;19.58;;;;;;;10.62;100.00;100701.78;10285090;28;20039;-83
2021/05/22 20:52:29;;;;;;;26.13;19.92;;;;;;;10.82;100.00;100737.63;10298741;28;20196;-82
2021/05/22 20:57:29;;;;;;;26.83;18.30;;;;;;;11.15;100.00;100788.38;10278691;28;20514;-83
2021/05/22 21:02:30;;;;;;;23.23;18.02;;;;;;;10.76;100.00;100729.03;10289635;28;20054;-84
2021/05/22 21:07:31;;;;;;;23.13;17.73;;;;;;;10.50;100.00;100700.84;10260749;28;20065;-84
2021/05/22 21:12:31;;;;;;;22.23;16.52;;;;;;;10.90;100.00;100760.94;10294732;28;20109;-82
2021/05/22 21:17:35;;;;;;;23.50;17.70;;;;;;;11.14;100.00;100803.03;10278077;28;20680;-81
2021/05/22 21:22:38;;;;;;;22.52;17.20;;;;;;;10.63;100.00;100719.56;10276573;28;20147;-87
2021/05/22 21:27:41;;;;;;;24.15;17.05;;;;;;;10.25;100.00;100669.88;10275594;28;20057;-84
2021/05/22 21:32:42;;;;;;;22.98;16.85;;;;;;;10.58;100.00;100713.34;10293379;28;20034;-83
2021/05/22 21:37:46;;;;;;;26.42;17.20;;;;;;;10.68;100.00;100732.78;10269574;28;20039;-86
2021/05/22 21:42:48;;;;;;;28.33;17.92;;;;;;;10.90;100.00;100777.94;10281362;28;20166;-84
2021/05/22 21:47:50;;;;;;;25.60;18.53;;;;;;;11.00;100.00;100793.53;10285382;28;20421;-83
2021/05/22 21:52:53;;;;;;;22.20;16.73;;;;;;;11.07;100.00;100802.91;10313816;28;20309;-85
2021/05/22 21:57:55;;;;;;;25.95;18.05;;;;;;;11.16;100.00;100811.56;10278634;28;20248;-84
2021/05/22 22:02:55;;;;;;;27.05;18.60;;;;;;;11.08;100.00;100815.31;10240031;28;20054;-83
2021/05/22 22:07:56;;;;;;;26.15;19.30;;;;;;;11.02;100.00;100795.13;10274785;28;20113;-84
2021/05/22 22:12:57;;;;;;;27.17;19.67;;;;;;;10.83;100.00;100772.41;10254289;28;20145;-88
2021/05/22 22:17:58;;;;;;;22.60;18.65;;;;;;;11.15;100.00;100826.25;10282435;28;20054;-85
2021/05/22 22:22:59;;;;;;;22.25;17.05;;;;;;;11.16;100.00;100827.81;10240877;28;20050;-83
2021/05/22 22:28:00;;;;;;;23.42;15.93;;;;;;;11.05;100.00;100811.38;10282521;28;20046;-84
2021/05/22 22:33:02;;;;;;;25.65;17.25;;;;;;;11.11;100.00;100830.81;10291853;28;20052;-86
2021/05/22 22:38:07;;;;;;;22.25;16.80;;;;;;;11.05;100.00;100826.84;10255907;28;20046;-81
2021/05/22 22:43:08;;;;;;;18.80;12.95;;;;;;;11.01;100.00;100834.91;10265564;28;20598;-83
2021/05/22 22:48:09;;;;;;;17.23;13.48;;;;;;;11.06;100.00;100839.25;10276311;28;20034;-84
2021/05/22 22:53:10;;;;;;;22.63;15.13;;;;;;;10.87;100.00;100805.72;10262805;28;20031;-83
2021/05/22 22:58:10;;;;;;;23.95;16.73;;;;;;;11.07;100.00;100835.38;10268761;28;20038;-81
2021/05/22 23:03:11;;;;;;;24.00;17.02;;;;;;;11.20;100.00;100840.25;10238444;28;20070;-77
2021/05/22 23:08:12;;;;;;;25.30;17.35;;;;;;;11.05;100.00;100826.84;10267120;28;20058;-78
2021/05/22 23:13:14;;;;;;;28.73;17.60;;;;;;;11.11;100.00;100836.22;10276117;28;20062;-81